Time;durP1;ratioP1;P1;durP2;ratioP2;P2;SDS_P1;SDS_P2;PMS_P1;PMS_P2;Temp;Humidity;BMP_temperature;BMP_pressure;BME280_temperature;BME280_humidity;BME280_pressure;Samples;Min_cycle;Max_cycle;Signal;HPM_P1;HPM_P2
2021/04/11 00:00:42;;;;;;;13.20;12.00;;;;;;;;;;2047471;29;20643;-53
2021/04/11 00:01:42;;;;;;;13.27;12.05;;;;;;;;;;2042781;29;20175;-55
2021/04/11 00:02:43;;;;;;;13.25;11.60;;;;;;;;;;2040616;29;20255;-58
2021/04/11 00:03:43;;;;;;;12.32;11.10;;;;;;;;;;2034428;29;20192;-58
2021/04/11 00:04:43;;;;;;;12.68;11.48;;;;;;;;;;2033438;29;20180;-56
2021/04/11 00:05:44;;;;;;;12.88;11.57;;;;;;;;;;2038449;29;20695;-59
2021/04/11 00:06:44;;;;;;;13.60;12.15;;;;;;;;;;2035058;29;20180;-57
2021/04/11 00:07:44;;;;;;;14.48;13.02;;;;;;;;;;2034711;29;20172;-58
2021/04/11 00:08:45;;;;;;;13.45;12.05;;;;;;;;;;2033703;29;20231;-60
2021/04/11 00:09:45;;;;;;;13.20;12.00;;;;;;;;;;2037896;29;20187;-57
2021/04/11 00:10:46;;;;;;;17.05;15.27;;;;;;;;;;2042264;29;20180;-57
2021/04/11 00:11:47;;;;;;;11.13;10.18;;;;;;;;;;2035187;29;20180;-56
2021/04/11 00:12:47;;;;;;;11.43;10.32;;;;;;;;;;2035312;29;20653;-60
2021/04/11 00:13:50;;;;;;;11.27;10.13;;;;;;;;;;2033814;29;20184;-55
2021/04/11 00:14:50;;;;;;;10.55;9.55;;;;;;;;;;2035258;29;20176;-59
2021/04/11 00:15:50;;;;;;;11.82;10.68;;;;;;;;;;2040335;29;20710;-55
2021/04/11 00:16:51;;;;;;;11.60;10.60;;;;;;;;;;2046143;29;20206;-58
2021/04/11 00:17:51;;;;;;;11.63;10.55;;;;;;;;;;2042413;29;20242;-59
2021/04/11 00:18:51;;;;;;;11.98;10.95;;;;;;;;;;2034228;29;20187;-55
2021/04/11 00:19:52;;;;;;;9.95;9.05;;;;;;;;;;2035046;29;20175;-57
2021/04/11 00:20:52;;;;;;;12.10;10.88;;;;;;;;;;2042112;29;20553;-56
2021/04/11 00:21:52;;;;;;;10.98;9.93;;;;;;;;;;2042295;29;20225;-58
2021/04/11 00:22:53;;;;;;;12.98;10.18;;;;;;;;;;2042851;29;20218;-57
2021/04/11 00:23:53;;;;;;;11.52;10.43;;;;;;;;;;2049104;29;20193;-57
2021/04/11 00:24:53;;;;;;;11.98;10.68;;;;;;;;;;2034326;29;20200;-57
2021/04/11 00:25:54;;;;;;;10.63;9.73;;;;;;;;;;2034708;29;20196;-62
2021/04/11 00:26:54;;;;;;;11.27;9.88;;;;;;;;;;2038864;29;20180;-59
2021/04/11 00:27:55;;;;;;;11.73;10.57;;;;;;;;;;2040671;29;20195;-58
2021/04/11 00:28:55;;;;;;;10.10;9.25;;;;;;;;;;2035486;29;20177;-53
2021/04/11 00:29:55;;;;;;;11.00;9.95;;;;;;;;;;2032647;29;20312;-54
2021/04/11 00:30:55;;;;;;;9.82;9.10;;;;;;;;;;2033800;29;20646;-55
2021/04/11 00:31:56;;;;;;;10.43;9.43;;;;;;;;;;2034527;29;20180;-55
2021/04/11 00:32:57;;;;;;;10.55;9.65;;;;;;;;;;2042187;29;20187;-58
2021/04/11 00:33:58;;;;;;;9.95;8.95;;;;;;;;;;2042169;29;20267;-54
2021/04/11 00:34:58;;;;;;;10.95;9.40;;;;;;;;;;2041456;29;20231;-56
2021/04/11 00:35:58;;;;;;;10.52;9.43;;;;;;;;;;2035566;29;20215;-57
2021/04/11 00:36:58;;;;;;;9.65;8.75;;;;;;;;;;2041082;29;20641;-54
2021/04/11 00:37:59;;;;;;;10.45;9.45;;;;;;;;;;2034506;29;20208;-59
2021/04/11 00:38:59;;;;;;;9.43;8.70;;;;;;;;;;2034721;29;20247;-54
2021/04/11 00:39:59;;;;;;;9.57;8.60;;;;;;;;;;2034639;29;20184;-52
2021/04/11 00:41:07;;;;;;;9.35;8.43;;;;;;;;;;2041656;29;20176;-55
2021/04/11 00:42:11;;;;;;;9.13;8.32;;;;;;;;;;2041296;29;20191;-55
2021/04/11 00:43:13;;;;;;;9.35;8.45;;;;;;;;;;2034362;29;20182;-57
2021/04/11 00:44:14;;;;;;;9.35;8.40;;;;;;;;;;2034757;29;20231;-54
2021/04/11 00:45:25;;;;;;;11.82;7.97;;;;;;;;;;2034825;29;20187;-57
2021/04/11 00:46:30;;;;;;;9.13;8.23;;;;;;;;;;2035826;29;20182;-57
2021/04/11 00:47:30;;;;;;;9.85;8.85;;;;;;;;;;2035153;29;20169;-53
2021/04/11 00:48:32;;;;;;;8.63;7.93;;;;;;;;;;2041026;29;20191;-56
2021/04/11 00:49:34;;;;;;;8.43;7.70;;;;;;;;;;2046340;29;20171;-59
2021/04/11 00:50:35;;;;;;;8.98;8.10;;;;;;;;;;2048543;28;20635;-56
2021/04/11 00:51:36;;;;;;;9.15;8.25;;;;;;;;;;2048979;29;20175;-55
2021/04/11 00:52:36;;;;;;;9.02;8.23;;;;;;;;;;2034727;29;20168;-53
2021/04/11 00:53:36;;;;;;;9.25;8.30;;;;;;;;;;2047149;29;20187;-52
2021/04/11 00:54:37;;;;;;;10.10;9.10;;;;;;;;;;2041576;29;20207;-56
2021/04/11 00:55:37;;;;;;;8.98;8.18;;;;;;;;;;2033616;29;20196;-53
2021/04/11 00:56:40;;;;;;;10.07;9.10;;;;;;;;;;2040693;29;20218;-57
2021/04/11 00:57:42;;;;;;;9.32;8.52;;;;;;;;;;2041463;29;20187;-53
2021/04/11 00:58:42;;;;;;;9.05;8.13;;;;;;;;;;2042027;28;20182;-54
2021/04/11 00:59:43;;;;;;;9.73;8.82;;;;;;;;;;2037310;29;20179;-52
2021/04/11 01:00:44;;;;;;;8.98;8.13;;;;;;;;;;2032571;29;20263;-54
2021/04/11 01:01:45;;;;;;;11.40;9.23;;;;;;;;;;2046931;29;20174;-57
2021/04/11 01:02:45;;;;;;;8.65;7.82;;;;;;;;;;2049181;29;20171;-57
2021/04/11 01:03:48;;;;;;;9.13;8.30;;;;;;;;;;2034007;29;20188;-56
2021/04/11 01:04:49;;;;;;;8.50;7.70;;;;;;;;;;2037559;29;20195;-58
2021/04/11 01:05:50;;;;;;;8.77;7.97;;;;;;;;;;2025177;29;20205;-59
2021/04/11 01:06:56;;;;;;;8.45;7.65;;;;;;;;;;2033388;29;20184;-58
2021/04/11 01:07:58;;;;;;;8.80;8.00;;;;;;;;;;2041710;29;20263;-55
2021/04/11 01:08:58;;;;;;;9.75;8.57;;;;;;;;;;2041829;29;20271;-56
2021/04/11 01:09:59;;;;;;;12.68;9.25;;;;;;;;;;2048318;29;20178;-56
2021/04/11 01:11:13;;;;;;;9.65;8.68;;;;;;;;;;2041292;29;20172;-58
2021/04/11 01:12:18;;;;;;;9.23;8.20;;;;;;;;;;2047083;28;20954;-55
2021/04/11 01:13:20;;;;;;;9.20;8.30;;;;;;;;;;2040990;29;20180;-56
2021/04/11 01:14:21;;;;;;;9.88;8.80;;;;;;;;;;2068023;23;20228;-55
2021/04/11 01:15:24;;;;;;;9.65;8.70;;;;;;;;;;2052723;28;20191;-58
2021/04/11 01:16:25;;;;;;;8.82;8.02;;;;;;;;;;2044763;28;20181;-56
2021/04/11 01:17:28;;;;;;;9.02;8.13;;;;;;;;;;2039076;29;20258;-56
2021/04/11 01:18:32;;;;;;;8.60;7.80;;;;;;;;;;2046038;28;20181;-57
2021/04/11 01:19:35;;;;;;;9.55;8.50;;;;;;;;;;2048799;29;20194;-59
2021/04/11 01:20:36;;;;;;;10.50;9.10;;;;;;;;;;2047849;28;20214;-59
2021/04/11 01:21:43;;;;;;;10.20;9.23;;;;;;;;;;2047613;28;20202;-57
2021/04/11 01:22:46;;;;;;;9.55;8.65;;;;;;;;;;2052817;28;20183;-57
2021/04/11 01:23:51;;;;;;;9.25;8.05;;;;;;;;;;2041290;29;20227;-58
2021/04/11 01:24:52;;;;;;;9.73;8.85;;;;;;;;;;2039592;29;20221;-57
2021/04/11 01:25:55;;;;;;;9.75;8.85;;;;;;;;;;2041465;29;20179;-56
2021/04/11 01:26:55;;;;;;;11.15;10.13;;;;;;;;;;2041380;29;20899;-58
2021/04/11 01:27:57;;;;;;;11.93;10.88;;;;;;;;;;2037838;29;20212;-55
2021/04/11 01:28:58;;;;;;;9.13;8.23;;;;;;;;;;2046357;29;20179;-55
2021/04/11 01:29:59;;;;;;;9.60;8.65;;;;;;;;;;2047281;29;20179;-57
2021/04/11 01:31:05;;;;;;;10.48;9.38;;;;;;;;;;2041157;29;20183;-57
2021/04/11 01:32:07;;;;;;;10.07;9.18;;;;;;;;;;2045907;28;20525;-55
2021/04/11 01:33:10;;;;;;;11.98;8.77;;;;;;;;;;2046691;29;20179;-55
2021/04/11 01:34:12;;;;;;;10.75;9.65;;;;;;;;;;2048820;29;20182;-58
2021/04/11 01:35:13;;;;;;;10.50;9.45;;;;;;;;;;2037301;29;20644;-56
2021/04/11 01:36:14;;;;;;;10.07;9.07;;;;;;;;;;2041963;29;20254;-55
2021/04/11 01:37:17;;;;;;;9.73;8.82;;;;;;;;;;2048944;29;20175;-55
2021/04/11 01:38:18;;;;;;;10.43;9.50;;;;;;;;;;2048939;29;20202;-58
2021/04/11 01:39:20;;;;;;;9.95;8.95;;;;;;;;;;2049252;29;20206;-59
2021/04/11 01:40:26;;;;;;;10.10;9.00;;;;;;;;;;2041793;29;20671;-57
2021/04/11 01:41:33;;;;;;;9.25;8.43;;;;;;;;;;2041536;29;20180;-61
2021/04/11 01:42:33;;;;;;;10.20;9.18;;;;;;;;;;2041069;29;20571;-60
2021/04/11 01:43:34;;;;;;;10.02;9.02;;;;;;;;;;2040147;29;20207;-58
2021/04/11 01:44:37;;;;;;;10.63;9.63;;;;;;;;;;2038893;29;20191;-59
2021/04/11 01:45:39;;;;;;;11.50;10.10;;;;;;;;;;2033760;29;20167;-58
2021/04/11 01:46:39;;;;;;;11.18;10.07;;;;;;;;;;2036989;29;20207;-58
2021/04/11 01:47:40;;;;;;;12.30;9.43;;;;;;;;;;2042479;29;20179;-59
2021/04/11 01:48:41;;;;;;;10.05;9.07;;;;;;;;;;2048905;29;20192;-60
2021/04/11 01:49:42;;;;;;;10.48;9.60;;;;;;;;;;2049601;29;20222;-58
2021/04/11 01:50:43;;;;;;;10.10;9.10;;;;;;;;;;2041546;29;20199;-60
2021/04/11 01:51:46;;;;;;;10.38;9.32;;;;;;;;;;2042239;29;20184;-57
2021/04/11 01:52:47;;;;;;;10.48;9.45;;;;;;;;;;2040784;29;20270;-58
2021/04/11 01:53:48;;;;;;;10.05;9.10;;;;;;;;;;2040503;29;20203;-57
2021/04/11 01:54:49;;;;;;;10.38;9.32;;;;;;;;;;2041071;29;20203;-58
2021/04/11 01:55:51;;;;;;;9.73;8.98;;;;;;;;;;2040198;29;20179;-57
2021/04/11 01:56:54;;;;;;;9.07;8.30;;;;;;;;;;2040619;29;20262;-56
2021/04/11 01:58:01;;;;;;;10.90;9.27;;;;;;;;;;2033008;29;20195;-58
2021/04/11 01:59:06;;;;;;;9.88;8.90;;;;;;;;;;2041322;29;20343;-57
2021/04/11 02:00:15;;;;;;;10.02;9.13;;;;;;;;;;2048653;29;20174;-58
2021/04/11 02:01:22;;;;;;;10.98;8.75;;;;;;;;;;2047568;29;20175;-56
2021/04/11 02:02:24;;;;;;;10.95;9.27;;;;;;;;;;2040992;29;20184;-56
2021/04/11 02:03:24;;;;;;;8.80;8.05;;;;;;;;;;2041565;29;20172;-57
2021/04/11 02:04:25;;;;;;;10.45;9.55;;;;;;;;;;2039160;29;20726;-57
2021/04/11 02:05:26;;;;;;;9.88;8.98;;;;;;;;;;2033067;29;20180;-58
2021/04/11 02:06:28;;;;;;;10.75;9.60;;;;;;;;;;2040052;29;20227;-57
2021/04/11 02:07:34;;;;;;;9.88;8.88;;;;;;;;;;2048314;29;20695;-57
2021/04/11 02:08:39;;;;;;;10.57;9.45;;;;;;;;;;2041163;29;20167;-59
2021/04/11 02:09:47;;;;;;;9.85;8.85;;;;;;;;;;2042481;29;20183;-58
2021/04/11 02:11:02;;;;;;;9.52;8.60;;;;;;;;;;2038993;29;20198;-55
2021/04/11 02:12:06;;;;;;;8.98;8.25;;;;;;;;;;2039818;29;20191;-56
2021/04/11 02:13:08;;;;;;;9.30;8.40;;;;;;;;;;2040631;29;20184;-55
2021/04/11 02:14:09;;;;;;;9.65;8.85;;;;;;;;;;2041241;29;20194;-58
2021/04/11 02:15:20;;;;;;;10.55;9.55;;;;;;;;;;2049329;28;20183;-58
2021/04/11 02:16:23;;;;;;;10.98;9.48;;;;;;;;;;2037386;29;20175;-55
2021/04/11 02:17:23;;;;;;;9.77;8.80;;;;;;;;;;2040331;29;20190;-57
2021/04/11 02:18:28;;;;;;;9.68;8.88;;;;;;;;;;2040845;29;20172;-55
2021/04/11 02:19:31;;;;;;;10.77;9.77;;;;;;;;;;2034909;29;20196;-58
2021/04/11 02:20:34;;;;;;;12.95;9.57;;;;;;;;;;2031707;29;20230;-54
2021/04/11 02:21:35;;;;;;;9.98;8.98;;;;;;;;;;2034896;29;20197;-57
2021/04/11 02:22:38;;;;;;;9.40;8.68;;;;;;;;;;2049562;29;20183;-56
2021/04/11 02:23:40;;;;;;;10.15;9.23;;;;;;;;;;2040474;29;20160;-55
2021/04/11 02:24:42;;;;;;;10.32;9.38;;;;;;;;;;2033815;29;20263;-58
2021/04/11 02:25:44;;;;;;;10.70;9.75;;;;;;;;;;2040482;29;20168;-56
2021/04/11 02:26:45;;;;;;;9.90;9.10;;;;;;;;;;2041548;29;20645;-57
2021/04/11 02:27:46;;;;;;;11.30;10.23;;;;;;;;;;2033355;29;20270;-59
2021/04/11 02:28:47;;;;;;;10.32;9.40;;;;;;;;;;2024826;29;20522;-54
2021/04/11 02:29:49;;;;;;;10.40;9.40;;;;;;;;;;2041737;29;20187;-55
2021/04/11 02:30:51;;;;;;;10.93;9.85;;;;;;;;;;2041723;29;20263;-57
2021/04/11 02:31:52;;;;;;;10.38;9.43;;;;;;;;;;2039955;29;20179;-57
2021/04/11 02:32:56;;;;;;;10.68;9.68;;;;;;;;;;2040214;29;20675;-55
2021/04/11 02:33:59;;;;;;;11.05;10.02;;;;;;;;;;2040465;29;20267;-57
2021/04/11 02:35:00;;;;;;;11.00;10.00;;;;;;;;;;2033161;29;20192;-56
2021/04/11 02:36:05;;;;;;;10.98;10.07;;;;;;;;;;2040991;29;20712;-57
2021/04/11 02:37:06;;;;;;;10.32;9.43;;;;;;;;;;2040859;29;20184;-57
2021/04/11 02:38:13;;;;;;;11.57;10.50;;;;;;;;;;2041347;29;20566;-56
2021/04/11 02:39:20;;;;;;;11.70;10.57;;;;;;;;;;2047719;29;20234;-55
2021/04/11 02:40:26;;;;;;;12.10;10.90;;;;;;;;;;2040893;29;20178;-55
2021/04/11 02:41:27;;;;;;;11.73;10.82;;;;;;;;;;2040331;29;20170;-55
2021/04/11 02:42:29;;;;;;;12.88;11.68;;;;;;;;;;2047841;29;20175;-54
2021/04/11 02:43:30;;;;;;;12.02;10.90;;;;;;;;;;2040529;29;20176;-55
2021/04/11 02:44:34;;;;;;;12.80;11.60;;;;;;;;;;2040830;29;20192;-56
2021/04/11 02:45:37;;;;;;;12.50;11.30;;;;;;;;;;2040119;29;20179;-55
2021/04/11 02:46:40;;;;;;;14.15;12.20;;;;;;;;;;2036095;29;20766;-56
2021/04/11 02:47:41;;;;;;;13.13;11.88;;;;;;;;;;2048501;29;20201;-57
2021/04/11 02:48:43;;;;;;;12.50;11.50;;;;;;;;;;2040087;29;20175;-54
2021/04/11 02:49:53;;;;;;;12.20;11.02;;;;;;;;;;2040595;29;20187;-54
2021/04/11 02:50:57;;;;;;;11.52;10.50;;;;;;;;;;2041378;29;20620;-59
2021/04/11 02:52:07;;;;;;;11.50;10.50;;;;;;;;;;2040070;29;20625;-54
2021/04/11 02:53:15;;;;;;;12.52;11.40;;;;;;;;;;2041188;29;20160;-55
2021/04/11 02:54:17;;;;;;;11.98;10.88;;;;;;;;;;2035145;29;20198;-57
2021/04/11 02:55:20;;;;;;;11.73;10.63;;;;;;;;;;2040040;29;20175;-55
2021/04/11 02:56:24;;;;;;;12.40;11.15;;;;;;;;;;2040832;29;20191;-56
2021/04/11 02:57:26;;;;;;;12.07;10.93;;;;;;;;;;2040974;29;20223;-58
2021/04/11 02:58:30;;;;;;;11.75;10.52;;;;;;;;;;2031113;29;20753;-56
2021/04/11 02:59:30;;;;;;;10.57;9.57;;;;;;;;;;2033121;29;20173;-58
2021/04/11 03:00:38;;;;;;;10.43;9.45;;;;;;;;;;2047088;29;20174;-58
2021/04/11 03:01:44;;;;;;;10.68;9.68;;;;;;;;;;2039508;29;20176;-59
2021/04/11 03:02:46;;;;;;;10.40;9.60;;;;;;;;;;2032139;29;20181;-57
2021/04/11 03:03:46;;;;;;;11.05;10.13;;;;;;;;;;2040321;29;20180;-57
2021/04/11 03:04:51;;;;;;;11.20;10.25;;;;;;;;;;2025617;29;20641;-57
2021/04/11 03:05:53;;;;;;;12.32;10.63;;;;;;;;;;2025323;29;20702;-57
2021/04/11 03:06:59;;;;;;;11.27;10.25;;;;;;;;;;2040360;29;20207;-57
2021/04/11 03:08:02;;;;;;;10.45;9.30;;;;;;;;;;2048116;29;20174;-55
2021/04/11 03:09:14;;;;;;;10.07;9.10;;;;;;;;;;2047512;29;20171;-56
2021/04/11 03:10:21;;;;;;;10.98;9.95;;;;;;;;;;2041399;29;20218;-58
2021/04/11 03:11:27;;;;;;;10.27;9.30;;;;;;;;;;2041202;29;20176;-57
2021/04/11 03:12:27;;;;;;;11.45;9.43;;;;;;;;;;2039970;29;20176;-58
2021/04/11 03:13:28;;;;;;;10.30;9.40;;;;;;;;;;2040339;29;20176;-57
2021/04/11 03:14:32;;;;;;;10.60;9.70;;;;;;;;;;2040554;29;20700;-57
2021/04/11 03:15:34;;;;;;;10.88;9.88;;;;;;;;;;2040704;29;20262;-58
2021/04/11 03:16:35;;;;;;;10.88;9.77;;;;;;;;;;2040166;29;20191;-57
2021/04/11 03:17:36;;;;;;;10.55;9.48;;;;;;;;;;2031482;29;20200;-58
2021/04/11 03:18:37;;;;;;;9.95;9.05;;;;;;;;;;2032915;29;20267;-58
2021/04/11 03:19:44;;;;;;;11.85;9.70;;;;;;;;;;2032955;29;20191;-57
2021/04/11 03:20:45;;;;;;;10.73;9.73;;;;;;;;;;2039614;29;20175;-57
2021/04/11 03:21:51;;;;;;;10.25;9.25;;;;;;;;;;2040352;29;20179;-57
2021/04/11 03:22:54;;;;;;;10.57;9.13;;;;;;;;;;2040541;29;20172;-58
2021/04/11 03:23:56;;;;;;;10.68;9.68;;;;;;;;;;2040570;29;20525;-54
2021/04/11 03:25:03;;;;;;;10.23;9.23;;;;;;;;;;2047488;29;20163;-57
2021/04/11 03:26:08;;;;;;;10.13;9.05;;;;;;;;;;2036435;29;20176;-55
2021/04/11 03:27:34;;;;;;;10.27;9.27;;;;;;;;;;2041548;29;20179;-57
2021/04/11 03:28:41;;;;;;;12.05;9.07;;;;;;;;;;2046807;29;20186;-55
2021/04/11 03:29:44;;;;;;;10.98;9.88;;;;;;;;;;2048068;29;20187;-55
2021/04/11 03:30:45;;;;;;;10.65;9.60;;;;;;;;;;2039305;29;20656;-55
2021/04/11 03:31:48;;;;;;;10.15;9.18;;;;;;;;;;2030792;29;20168;-55
2021/04/11 03:32:50;;;;;;;10.63;8.95;;;;;;;;;;2040267;29;20180;-57
2021/04/11 03:33:55;;;;;;;10.48;9.57;;;;;;;;;;2032965;29;20219;-57
2021/04/11 03:34:57;;;;;;;10.18;9.27;;;;;;;;;;2048022;29;20186;-59
2021/04/11 03:35:58;;;;;;;10.00;9.00;;;;;;;;;;2047932;29;20171;-58
2021/04/11 03:37:01;;;;;;;10.40;9.35;;;;;;;;;;2032622;29;20247;-58
2021/04/11 03:38:03;;;;;;;9.75;8.88;;;;;;;;;;2033113;29;20307;-58
2021/04/11 03:39:05;;;;;;;10.95;9.93;;;;;;;;;;2031444;29;20215;-58
2021/04/11 03:40:11;;;;;;;10.30;9.45;;;;;;;;;;2026774;29;20698;-58
2021/04/11 03:41:14;;;;;;;9.82;8.93;;;;;;;;;;2041148;29;20385;-58
2021/04/11 03:42:18;;;;;;;10.18;9.23;;;;;;;;;;2047446;29;20249;-58
2021/04/11 03:43:24;;;;;;;10.57;9.48;;;;;;;;;;2040149;29;20184;-57
2021/04/11 03:44:25;;;;;;;10.07;9.18;;;;;;;;;;2040528;29;20246;-55
2021/04/11 03:45:31;;;;;;;9.73;8.82;;;;;;;;;;2040320;29;20176;-57
2021/04/11 03:46:42;;;;;;;10.45;9.40;;;;;;;;;;2040779;29;20231;-55
2021/04/11 03:47:47;;;;;;;11.75;9.50;;;;;;;;;;2040580;29;20176;-57
2021/04/11 03:48:57;;;;;;;10.48;9.48;;;;;;;;;;2033000;29;20215;-55
2021/04/11 03:50:01;;;;;;;10.77;9.77;;;;;;;;;;2033371;29;20166;-58
2021/04/11 03:51:14;;;;;;;10.35;9.25;;;;;;;;;;2048367;29;20167;-58
2021/04/11 03:52:21;;;;;;;10.43;9.38;;;;;;;;;;2047296;29;20187;-56
2021/04/11 03:53:26;;;;;;;11.35;10.25;;;;;;;;;;2040316;29;20163;-55
2021/04/11 03:54:37;;;;;;;11.13;9.73;;;;;;;;;;2040386;29;20704;-57
2021/04/11 03:55:39;;;;;;;10.55;9.65;;;;;;;;;;2032868;29;20219;-54
2021/04/11 03:56:43;;;;;;;9.70;8.93;;;;;;;;;;2032654;29;20601;-56
2021/04/11 03:57:51;;;;;;;9.85;8.95;;;;;;;;;;2040545;29;20671;-56
2021/04/11 03:59:03;;;;;;;9.82;8.90;;;;;;;;;;2040468;29;20231;-58
2021/04/11 04:00:11;;;;;;;10.30;9.23;;;;;;;;;;2045275;29;20539;-57
2021/04/11 04:01:17;;;;;;;10.40;9.50;;;;;;;;;;2040900;29;20632;-58
2021/04/11 04:02:19;;;;;;;11.57;10.05;;;;;;;;;;2047078;29;20181;-58
2021/04/11 04:03:22;;;;;;;10.35;9.43;;;;;;;;;;2043621;29;20179;-55
2021/04/11 04:04:25;;;;;;;11.27;10.10;;;;;;;;;;2043504;29;20278;-55
2021/04/11 04:05:34;;;;;;;10.68;9.68;;;;;;;;;;2037520;29;20251;-58
2021/04/11 04:06:39;;;;;;;11.07;10.07;;;;;;;;;;2040265;29;20178;-58
2021/04/11 04:07:43;;;;;;;12.25;9.90;;;;;;;;;;2047791;29;20183;-57
2021/04/11 04:08:43;;;;;;;11.00;9.90;;;;;;;;;;2039611;29;20581;-58
2021/04/11 04:09:50;;;;;;;11.07;9.82;;;;;;;;;;2032397;29;20264;-57
2021/04/11 04:11:11;;;;;;;11.02;10.02;;;;;;;;;;2040444;29;20168;-58
2021/04/11 04:12:27;;;;;;;10.40;9.48;;;;;;;;;;2039759;29;20274;-56
2021/04/11 04:13:51;;;;;;;11.18;10.13;;;;;;;;;;2034289;29;20180;-56
2021/04/11 04:15:00;;;;;;;11.15;10.15;;;;;;;;;;2040323;29;20192;-54
2021/04/11 04:16:02;;;;;;;11.02;10.00;;;;;;;;;;2034090;29;20685;-57
2021/04/11 04:17:07;;;;;;;11.77;10.18;;;;;;;;;;2031541;29;20180;-55
2021/04/11 04:18:17;;;;;;;10.88;9.77;;;;;;;;;;2035177;29;21730;-55
2021/04/11 04:19:30;;;;;;;11.27;10.20;;;;;;;;;;2047325;29;20182;-58
2021/04/11 04:20:42;;;;;;;12.52;11.23;;;;;;;;;;2040719;29;20171;-58
2021/04/11 04:21:54;;;;;;;11.73;10.68;;;;;;;;;;2040424;29;20649;-58
2021/04/11 04:23:03;;;;;;;11.80;10.70;;;;;;;;;;2046983;29;20631;-59
2021/04/11 04:24:29;;;;;;;12.05;10.75;;;;;;;;;;2039839;29;20176;-58
2021/04/11 04:25:42;;;;;;;13.75;11.75;;;;;;;;;;2040293;29;20182;-56
2021/04/11 04:26:56;;;;;;;14.10;12.70;;;;;;;;;;2030962;29;20291;-58
2021/04/11 04:28:08;;;;;;;15.25;13.05;;;;;;;;;;2028311;29;20192;-56
2021/04/11 04:29:20;;;;;;;14.10;12.60;;;;;;;;;;2043350;28;20326;-57
2021/04/11 04:30:23;;;;;;;17.50;14.27;;;;;;;;;;2039316;29;20727;-54
2021/04/11 04:31:47;;;;;;;15.00;13.40;;;;;;;;;;2039545;29;20168;-54
2021/04/11 04:33:00;;;;;;;17.42;14.73;;;;;;;;;;2040690;29;20180;-55
2021/04/11 04:34:03;;;;;;;17.20;15.50;;;;;;;;;;2026920;29;20177;-53
2021/04/11 04:35:20;;;;;;;18.13;15.52;;;;;;;;;;2039724;29;20180;-56
2021/04/11 04:36:31;;;;;;;20.00;16.20;;;;;;;;;;2040385;29;20610;-56
2021/04/11 04:37:57;;;;;;;20.67;16.80;;;;;;;;;;2031843;29;20216;-54
2021/04/11 04:39:06;;;;;;;20.85;17.25;;;;;;;;;;2002264;29;20191;-57
2021/04/11 04:40:13;;;;;;;24.25;19.48;;;;;;;;;;2037182;29;20719;-56
2021/04/11 04:41:31;;;;;;;25.35;19.17;;;;;;;;;;2040409;29;20266;-57
2021/04/11 04:42:38;;;;;;;24.85;19.73;;;;;;;;;;2040879;29;20186;-58
2021/04/11 04:43:51;;;;;;;21.98;17.67;;;;;;;;;;2040842;29;20160;-56
2021/04/11 04:44:58;;;;;;;29.75;19.55;;;;;;;;;;2040444;29;20194;-57
2021/04/11 04:46:09;;;;;;;25.50;19.98;;;;;;;;;;2034462;29;20295;-57
2021/04/11 04:47:12;;;;;;;26.75;20.88;;;;;;;;;;2036557;29;21878;-55
2021/04/11 04:48:26;;;;;;;24.88;19.80;;;;;;;;;;2038519;29;20184;-54
2021/04/11 04:49:36;;;;;;;29.10;21.33;;;;;;;;;;2031432;29;20458;-54
2021/04/11 04:50:40;;;;;;;27.05;20.85;;;;;;;;;;2030033;29;20755;-55
2021/04/11 04:51:49;;;;;;;23.38;18.48;;;;;;;;;;2046803;29;20268;-54
2021/04/11 04:52:57;;;;;;;25.70;20.42;;;;;;;;;;2052207;29;20206;-54
2021/04/11 04:54:08;;;;;;;25.80;19.70;;;;;;;;;;2052826;29;20185;-55
2021/04/11 04:55:23;;;;;;;28.30;20.67;;;;;;;;;;2052551;29;20242;-55
2021/04/11 04:56:27;;;;;;;26.35;20.05;;;;;;;;;;2050429;29;20171;-54
2021/04/11 04:57:36;;;;;;;27.02;19.75;;;;;;;;;;2044923;29;20183;-53
2021/04/11 04:58:42;;;;;;;28.63;21.27;;;;;;;;;;2045659;29;20187;-55
2021/04/11 04:59:51;;;;;;;25.15;19.50;;;;;;;;;;2045866;29;20179;-55
2021/04/11 05:01:00;;;;;;;21.40;15.45;;;;;;;;;;2043782;29;20270;-56
2021/04/11 05:02:09;;;;;;;18.63;15.30;;;;;;;;;;2045241;29;20238;-55
2021/04/11 05:03:22;;;;;;;18.90;15.70;;;;;;;;;;2043225;29;20618;-56
2021/04/11 05:04:35;;;;;;;18.70;15.85;;;;;;;;;;2050440;29;20183;-54
2021/04/11 05:05:42;;;;;;;16.17;13.38;;;;;;;;;;2045490;29;20176;-56
2021/04/11 05:06:44;;;;;;;18.00;14.70;;;;;;;;;;2038256;29;20183;-55
2021/04/11 05:08:02;;;;;;;16.90;14.47;;;;;;;;;;2039690;29;20204;-56
2021/04/11 05:09:05;;;;;;;15.70;13.73;;;;;;;;;;2052917;29;20175;-57
2021/04/11 05:10:17;;;;;;;15.00;13.02;;;;;;;;;;2049876;29;20194;-57
2021/04/11 05:11:20;;;;;;;15.35;12.70;;;;;;;;;;2041220;29;20186;-56
2021/04/11 05:12:43;;;;;;;14.88;12.43;;;;;;;;;;2034431;29;20168;-57
2021/04/11 05:13:49;;;;;;;15.63;12.95;;;;;;;;;;2041611;29;20695;-55
2021/04/11 05:14:57;;;;;;;16.90;13.70;;;;;;;;;;2042351;29;20219;-56
2021/04/11 05:16:16;;;;;;;15.82;12.85;;;;;;;;;;2041511;29;20176;-59
2021/04/11 05:17:31;;;;;;;16.77;13.43;;;;;;;;;;2044051;29;20186;-56
2021/04/11 05:18:40;;;;;;;14.63;12.25;;;;;;;;;;2041660;29;20235;-56
2021/04/11 05:19:52;;;;;;;14.40;12.38;;;;;;;;;;2027697;29;20202;-57
2021/04/11 05:21:10;;;;;;;16.95;13.55;;;;;;;;;;2038838;29;20168;-55
2021/04/11 05:22:13;;;;;;;17.27;13.60;;;;;;;;;;2039810;29;20660;-57
2021/04/11 05:23:19;;;;;;;15.60;12.63;;;;;;;;;;2041147;29;20233;-56
2021/04/11 05:24:28;;;;;;;15.00;12.88;;;;;;;;;;2041191;29;20196;-58
2021/04/11 05:25:35;;;;;;;14.18;12.45;;;;;;;;;;2034142;29;20176;-54
2021/04/11 05:26:56;;;;;;;11.75;10.55;;;;;;;;;;2041932;29;20159;-56
2021/04/11 05:28:08;;;;;;;11.85;10.57;;;;;;;;;;2034886;29;20179;-57
2021/04/11 05:29:23;;;;;;;11.95;10.48;;;;;;;;;;2042229;29;20637;-57
2021/04/11 05:30:25;;;;;;;12.43;11.20;;;;;;;;;;2047796;29;20564;-57
2021/04/11 05:31:27;;;;;;;10.97;9.87;;;;;;;;;;2042380;29;20184;-58
2021/04/11 05:32:28;;;;;;;10.63;9.53;;;;;;;;;;2042338;29;20624;-54
2021/04/11 05:33:28;;;;;;;11.02;9.90;;;;;;;;;;2041738;29;20168;-57
2021/04/11 05:34:29;;;;;;;11.07;9.97;;;;;;;;;;2042727;29;20204;-58
2021/04/11 05:35:33;;;;;;;10.23;9.20;;;;;;;;;;2041998;29;20658;-58
2021/04/11 05:36:42;;;;;;;11.50;10.32;;;;;;;;;;2042000;29;20191;-57
2021/04/11 05:38:00;;;;;;;11.13;9.98;;;;;;;;;;2040980;29;20199;-58
2021/04/11 05:39:18;;;;;;;10.77;9.68;;;;;;;;;;2044532;29;20180;-58
2021/04/11 05:40:22;;;;;;;10.55;9.50;;;;;;;;;;2047614;28;20175;-57
2021/04/11 05:41:25;;;;;;;10.35;9.35;;;;;;;;;;2042769;29;20263;-58
2021/04/11 05:42:55;;;;;;;9.88;8.88;;;;;;;;;;2038128;29;20259;-57
2021/04/11 05:43:58;;;;;;;10.10;9.10;;;;;;;;;;2034457;29;20180;-57
2021/04/11 05:44:58;;;;;;;9.63;8.73;;;;;;;;;;2034292;29;20712;-57
2021/04/11 05:46:01;;;;;;;9.35;8.55;;;;;;;;;;2038479;29;20259;-58
2021/04/11 05:47:04;;;;;;;8.88;7.97;;;;;;;;;;2042108;29;20188;-63
2021/04/11 05:48:21;;;;;;;8.75;7.95;;;;;;;;;;2042458;29;20179;-57
2021/04/11 05:49:42;;;;;;;8.85;8.05;;;;;;;;;;2041576;29;20199;-58
2021/04/11 05:50:49;;;;;;;8.97;8.07;;;;;;;;;;2041970;29;20175;-59
2021/04/11 05:51:52;;;;;;;8.07;7.30;;;;;;;;;;2034875;29;20191;-58
2021/04/11 05:52:59;;;;;;;8.63;7.93;;;;;;;;;;2049716;29;20211;-57
2021/04/11 05:54:11;;;;;;;9.37;8.57;;;;;;;;;;2049246;29;20175;-57
2021/04/11 05:55:13;;;;;;;8.60;7.70;;;;;;;;;;2042546;29;20198;-56
2021/04/11 05:56:28;;;;;;;8.88;8.07;;;;;;;;;;2042998;29;20405;-58
2021/04/11 05:57:33;;;;;;;8.47;7.67;;;;;;;;;;2042584;29;20179;-58
2021/04/11 05:58:40;;;;;;;9.17;8.27;;;;;;;;;;2049612;29;20171;-57
2021/04/11 05:59:45;;;;;;;10.50;8.50;;;;;;;;;;2050189;29;20378;-60
2021/04/11 06:00:59;;;;;;;8.82;8.00;;;;;;;;;;2042197;29;20251;-58
2021/04/11 06:02:00;;;;;;;9.65;8.80;;;;;;;;;;2039808;29;20183;-57
2021/04/11 06:03:03;;;;;;;9.63;8.73;;;;;;;;;;2043116;29;20230;-57
2021/04/11 06:04:08;;;;;;;9.73;8.73;;;;;;;;;;2042547;29;20725;-56
2021/04/11 06:05:11;;;;;;;9.60;8.80;;;;;;;;;;2042143;29;20187;-56
2021/04/11 06:06:27;;;;;;;9.90;8.93;;;;;;;;;;2042212;29;20172;-58
2021/04/11 06:07:32;;;;;;;9.97;8.97;;;;;;;;;;2042335;29;20167;-57
2021/04/11 06:08:35;;;;;;;10.13;9.07;;;;;;;;;;2050764;29;20191;-59
2021/04/11 06:09:39;;;;;;;11.30;10.20;;;;;;;;;;2050152;29;20213;-58
2021/04/11 06:10:42;;;;;;;10.60;9.60;;;;;;;;;;2042495;29;20270;-56
2021/04/11 06:11:50;;;;;;;10.40;9.33;;;;;;;;;;2033532;29;20653;-58
2021/04/11 06:13:12;;;;;;;10.47;9.47;;;;;;;;;;2028574;29;20188;-53
2021/04/11 06:14:18;;;;;;;9.20;8.30;;;;;;;;;;2041556;29;20699;-56
2021/04/11 06:15:48;;;;;;;10.43;9.33;;;;;;;;;;2041896;29;20176;-55
2021/04/11 06:16:50;;;;;;;9.63;8.73;;;;;;;;;;2026179;29;20196;-57
2021/04/11 06:17:51;;;;;;;8.73;7.93;;;;;;;;;;2025684;29;20752;-55
2021/04/11 06:18:52;;;;;;;8.60;7.80;;;;;;;;;;2033179;29;20184;-54
2021/04/11 06:19:52;;;;;;;8.97;8.17;;;;;;;;;;2041275;29;20235;-54
2021/04/11 06:20:53;;;;;;;9.83;8.93;;;;;;;;;;2040970;29;20244;-57
2021/04/11 06:21:58;;;;;;;10.03;9.03;;;;;;;;;;2048012;29;20246;-56
2021/04/11 06:23:01;;;;;;;9.80;8.90;;;;;;;;;;2048289;29;20193;-54
2021/04/11 06:24:22;;;;;;;9.23;8.33;;;;;;;;;;2041381;29;20186;-56